createdAt,value
2022-09-06T00:00:57.591Z,43.09
2022-09-06T00:02:01.989Z,42.25
2022-09-06T00:03:06.592Z,42.47
2022-09-06T00:04:17.128Z,42.34
2022-09-06T00:05:21.472Z,42.58
2022-09-06T00:06:25.843Z,42.26
2022-09-06T00:07:30.202Z,43.42
2022-09-06T00:08:34.604Z,42.53
2022-09-06T00:09:39.227Z,43.29
2022-09-06T00:10:43.588Z,43.31
2022-09-06T00:11:47.967Z,43.23
2022-09-06T00:12:52.343Z,43.29
2022-09-06T00:13:56.700Z,42.73
2022-09-06T00:15:01.199Z,43.04
2022-09-06T00:16:05.734Z,42.6
2022-09-06T00:17:10.190Z,42.83
2022-09-06T00:18:14.569Z,43.13
2022-09-06T00:19:18.943Z,43.23
2022-09-06T00:20:23.327Z,42.92
2022-09-06T00:21:27.690Z,43.55
2022-09-06T00:22:32.046Z,43.65
2022-09-06T00:23:36.421Z,43.46
2022-09-06T00:24:40.776Z,43.77
2022-09-06T00:25:45.133Z,43.67
2022-09-06T00:26:49.520Z,43.76
2022-09-06T00:27:53.927Z,43.81
2022-09-06T00:28:58.300Z,43.88
2022-09-06T00:30:02.691Z,43.84
2022-09-06T00:31:07.189Z,43.73
2022-09-06T00:32:11.639Z,43.57
2022-09-06T00:33:16.126Z,43.28
2022-09-06T00:34:20.503Z,43.02
2022-09-06T00:35:24.850Z,43.15
2022-09-06T00:36:29.175Z,43.8
2022-09-06T00:37:33.535Z,43.64
2022-09-06T00:38:37.891Z,43.7
2022-09-06T00:39:42.481Z,43.05
2022-09-06T00:40:46.904Z,42.97
2022-09-06T00:41:51.209Z,43.11
2022-09-06T00:42:55.562Z,43.01
2022-09-06T00:43:59.904Z,42.77
2022-09-06T00:45:04.306Z,42.75
2022-09-06T00:46:08.860Z,42.33
2022-09-06T00:47:13.272Z,42.25
2022-09-06T00:48:17.630Z,42.41
2022-09-06T00:49:22.005Z,42.3
2022-09-06T00:50:26.371Z,42.44
2022-09-06T00:51:30.727Z,42.28
2022-09-06T00:52:35.105Z,42.33
2022-09-06T00:53:39.455Z,43.42
2022-09-06T00:54:43.784Z,43.5
2022-09-06T00:55:48.143Z,43.34
2022-09-06T00:56:52.503Z,43.38
2022-09-06T00:57:56.845Z,43.22
2022-09-06T00:59:01.266Z,42.33
2022-09-06T01:00:05.608Z,43.05
2022-09-06T01:01:10.336Z,43.62
2022-09-06T01:02:15.485Z,42.61
2022-09-06T01:03:19.899Z,43.67
2022-09-06T01:04:24.263Z,43.58
2022-09-06T01:05:28.654Z,42.91
2022-09-06T01:06:33.040Z,42.85
2022-09-06T01:07:37.373Z,42.79
2022-09-06T01:08:41.827Z,42.66
2022-09-06T01:09:46.219Z,42.43
2022-09-06T01:10:50.598Z,43.7
2022-09-06T01:11:54.978Z,42.47
2022-09-06T01:12:59.319Z,43.1
2022-09-06T01:14:03.721Z,42.93
2022-09-06T01:15:08.124Z,42.8
2022-09-06T01:16:12.759Z,43.49
2022-09-06T01:17:17.162Z,42.59
2022-09-06T01:18:21.680Z,43.04
2022-09-06T01:19:26.034Z,42.44
2022-09-06T01:20:30.369Z,42.74
2022-09-06T01:21:36.934Z,42.37
2022-09-06T01:22:41.286Z,42.55
2022-09-06T01:23:45.696Z,42.46
2022-09-06T01:24:50.193Z,43
2022-09-06T01:25:54.574Z,43
2022-09-06T01:26:58.945Z,42.62
2022-09-06T01:28:03.294Z,42.33
2022-09-06T01:29:07.641Z,42.82
2022-09-06T01:30:12.038Z,42.52
2022-09-06T01:31:16.637Z,42.21
2022-09-06T01:32:21.039Z,42.41
2022-09-06T01:33:25.377Z,42.91
2022-09-06T01:34:29.776Z,42.98
2022-09-06T01:35:34.185Z,42.26
2022-09-06T01:37:11.020Z,42.2
2022-09-06T01:38:15.472Z,42.1
2022-09-06T01:39:19.856Z,42.11
2022-09-06T01:40:24.264Z,42.52
2022-09-06T01:41:28.633Z,42.34
2022-09-06T01:42:35.911Z,42.32
2022-09-06T01:43:40.281Z,42.13
2022-09-06T01:44:44.623Z,42
2022-09-06T01:45:49.131Z,41.93
2022-09-06T01:46:53.513Z,41.83
2022-09-06T01:47:57.853Z,42.52
2022-09-06T01:49:02.207Z,41.9
2022-09-06T01:50:06.539Z,41.98
2022-09-06T01:51:11.020Z,42.39
2022-09-06T01:52:15.361Z,42.09
2022-09-06T01:53:19.769Z,42.38
2022-09-06T01:54:24.119Z,42.51
2022-09-06T01:55:28.473Z,42.21
2022-09-06T01:56:32.886Z,42.86
2022-09-06T01:57:37.446Z,42.46
2022-09-06T01:58:41.814Z,42.27
2022-09-06T01:59:46.184Z,42.4
2022-09-06T02:00:50.535Z,42.48
2022-09-06T02:01:55.135Z,42.63
2022-09-06T02:02:59.729Z,42.56
2022-09-06T02:04:04.062Z,42.79
2022-09-06T02:05:08.402Z,42.39
2022-09-06T02:06:12.799Z,42.58
2022-09-06T02:07:17.202Z,42.67
2022-09-06T02:08:21.656Z,42.43
2022-09-06T02:09:26.016Z,42.6
2022-09-06T02:10:30.369Z,42.56
2022-09-06T02:11:34.729Z,42.54
2022-09-06T02:12:39.144Z,42.47
2022-09-06T02:13:43.498Z,42.51
2022-09-06T02:14:47.868Z,42.33
2022-09-06T02:15:52.239Z,42.16
2022-09-06T02:16:56.758Z,42.26
2022-09-06T02:18:01.154Z,42.33
2022-09-06T02:19:05.519Z,42.25
2022-09-06T02:20:09.834Z,42.13
2022-09-06T02:21:14.192Z,42.4
2022-09-06T02:22:18.534Z,42.05
2022-09-06T02:23:22.937Z,42.18
2022-09-06T02:24:27.291Z,42.66
2022-09-06T02:25:31.660Z,41.97
2022-09-06T02:26:36.030Z,42.03
2022-09-06T02:27:40.382Z,41.89
2022-09-06T02:28:44.768Z,42.05
2022-09-06T02:29:49.091Z,41.96
2022-09-06T02:30:53.684Z,41.92
2022-09-06T02:31:58.063Z,42.16
2022-09-06T02:33:02.438Z,41.88
2022-09-06T02:34:06.850Z,41.86
2022-09-06T02:35:11.198Z,41.95
2022-09-06T02:36:15.564Z,41.98
2022-09-06T02:37:19.889Z,42.08
2022-09-06T02:38:24.273Z,41.83
2022-09-06T02:39:28.815Z,41.82
2022-09-06T02:40:33.263Z,41.81
2022-09-06T02:41:37.610Z,41.82
2022-09-06T02:42:41.961Z,41.85
2022-09-06T02:43:46.316Z,42.09
2022-09-06T02:44:50.936Z,41.77
2022-09-06T02:45:55.504Z,42.01
2022-09-06T02:46:59.867Z,41.75
2022-09-06T02:48:04.221Z,41.82
2022-09-06T02:49:08.581Z,41.92
2022-09-06T02:50:12.995Z,42.23
2022-09-06T02:51:17.393Z,41.88
2022-09-06T02:52:21.732Z,41.96
2022-09-06T02:53:26.046Z,41.94
2022-09-06T02:54:30.384Z,41.95
2022-09-06T02:55:34.739Z,41.87
2022-09-06T02:56:39.139Z,41.66
2022-09-06T02:57:43.528Z,41.87
2022-09-06T02:58:47.885Z,41.73
2022-09-06T02:59:52.267Z,41.77
2022-09-06T03:00:56.855Z,41.83
2022-09-06T03:02:01.434Z,41.73
2022-09-06T03:03:05.911Z,41.8
2022-09-06T03:04:10.284Z,41.88
2022-09-06T03:05:14.632Z,41.77
2022-09-06T03:06:18.997Z,41.74
2022-09-06T03:07:23.350Z,41.92
2022-09-06T03:08:28.172Z,42.02
2022-09-06T03:09:32.606Z,41.85
2022-09-06T03:10:36.992Z,41.87
2022-09-06T03:11:41.385Z,42.07
2022-09-06T03:12:45.729Z,42.14
2022-09-06T03:13:50.098Z,42.16
2022-09-06T03:14:57.100Z,41.82
2022-09-06T03:16:01.493Z,41.89
2022-09-06T03:17:06.205Z,42.01
2022-09-06T03:18:10.563Z,41.98
2022-09-06T03:19:14.931Z,41.66
2022-09-06T03:20:19.325Z,41.68
2022-09-06T03:21:23.742Z,41.66
2022-09-06T03:22:28.064Z,41.66
2022-09-06T03:23:32.472Z,41.65
2022-09-06T03:24:36.878Z,41.66
2022-09-06T03:25:41.234Z,41.59
2022-09-06T03:26:45.588Z,41.68
2022-09-06T03:27:49.931Z,41.75
2022-09-06T03:28:54.313Z,41.64
2022-09-06T03:29:58.662Z,41.62
2022-09-06T03:31:04.395Z,41.94
2022-09-06T03:32:08.800Z,41.75
2022-09-06T03:33:13.169Z,41.82
2022-09-06T03:34:17.564Z,41.73
2022-09-06T03:35:21.903Z,41.82
2022-09-06T03:36:26.307Z,41.94
2022-09-06T03:37:30.683Z,41.83
2022-09-06T03:38:35.040Z,41.92
2022-09-06T03:39:39.604Z,41.86
2022-09-06T03:40:43.979Z,42.04
2022-09-06T03:41:48.353Z,42
2022-09-06T03:42:52.683Z,42.03
2022-09-06T03:43:57.051Z,41.9
2022-09-06T03:45:01.391Z,41.7
2022-09-06T03:46:05.978Z,41.89
2022-09-06T03:47:10.357Z,41.9
2022-09-06T03:48:14.691Z,42.46
2022-09-06T03:49:19.024Z,42.18
2022-09-06T03:50:23.423Z,42.72
2022-09-06T03:51:27.852Z,42.51
2022-09-06T03:52:32.257Z,42.1
2022-09-06T03:53:36.624Z,41.99
2022-09-06T03:54:40.976Z,41.96
2022-09-06T03:55:45.397Z,41.91
2022-09-06T03:56:49.816Z,41.88
2022-09-06T03:57:54.197Z,42.09
2022-09-06T03:58:58.534Z,42.05
2022-09-06T04:00:02.866Z,42.03
2022-09-06T04:01:07.872Z,42
2022-09-06T04:02:12.566Z,42.21
2022-09-06T04:03:16.976Z,42.09
2022-09-06T04:04:21.374Z,42.02
2022-09-06T04:05:25.693Z,42.7
2022-09-06T04:06:30.080Z,42.46
2022-09-06T04:07:34.454Z,42.25
2022-09-06T04:08:38.822Z,41.96
2022-09-06T04:09:43.226Z,42.19
2022-09-06T04:10:47.577Z,41.97
2022-09-06T04:11:51.938Z,41.96
2022-09-06T04:12:56.309Z,41.75
2022-09-06T04:14:00.681Z,41.73
2022-09-06T04:15:05.068Z,41.65
2022-09-06T04:16:09.891Z,42.18
2022-09-06T04:17:14.274Z,41.85
2022-09-06T04:18:18.652Z,41.83
2022-09-06T04:19:23.031Z,41.9
2022-09-06T04:20:27.435Z,41.7
2022-09-06T04:21:31.814Z,41.68
2022-09-06T04:22:36.363Z,41.64
2022-09-06T04:23:42.188Z,41.79
2022-09-06T04:24:46.539Z,41.45
2022-09-06T04:25:50.919Z,41.52
2022-09-06T04:26:55.334Z,41.68
2022-09-06T04:27:59.730Z,41.63
2022-09-06T04:29:04.077Z,41.63
2022-09-06T04:30:08.456Z,41.65
2022-09-06T04:31:12.874Z,41.49
2022-09-06T04:32:17.269Z,41.4
2022-09-06T04:33:21.677Z,41.35
2022-09-06T04:34:26.033Z,41.4
2022-09-06T04:35:30.384Z,41.35
2022-09-06T04:36:34.782Z,41.34
2022-09-06T04:37:39.130Z,41.32
2022-09-06T04:38:43.476Z,41.34
2022-09-06T04:39:47.902Z,41.29
2022-09-06T04:40:52.277Z,41.31
2022-09-06T04:41:56.650Z,41.36
2022-09-06T04:43:00.966Z,41.25
2022-09-06T04:44:05.340Z,41.25
2022-09-06T04:45:09.679Z,41.22
2022-09-06T04:46:14.268Z,41.45
2022-09-06T04:47:18.704Z,41.41
2022-09-06T04:48:23.247Z,41.3
2022-09-06T04:49:27.635Z,41.35
2022-09-06T04:50:32.053Z,41.31
2022-09-06T04:51:36.432Z,41.58
2022-09-06T04:52:40.778Z,41.23
2022-09-06T04:53:45.160Z,41.26
2022-09-06T04:54:49.610Z,41.18
2022-09-06T04:55:53.957Z,41.27
2022-09-06T04:56:58.290Z,41.16
2022-09-06T04:58:02.634Z,41.33
2022-09-06T04:59:07.012Z,41.31
2022-09-06T05:00:11.419Z,41.32
2022-09-06T05:01:15.954Z,41.29
2022-09-06T05:02:20.682Z,41.16
2022-09-06T05:03:25.116Z,41.26
2022-09-06T05:04:29.487Z,41.17
2022-09-06T05:05:33.878Z,41.18
2022-09-06T05:06:38.190Z,41.39
2022-09-06T05:07:42.556Z,41.09
2022-09-06T05:08:46.928Z,41.24
2022-09-06T05:09:51.347Z,41.22
2022-09-06T05:10:55.738Z,41.16
2022-09-06T05:12:00.089Z,41.03
2022-09-06T05:13:04.455Z,41.12
2022-09-06T05:14:08.848Z,41.13
2022-09-06T05:15:13.214Z,41.24
2022-09-06T05:16:17.796Z,41.14
2022-09-06T05:17:22.195Z,41.18
2022-09-06T05:18:26.913Z,41.2
2022-09-06T05:19:31.536Z,41.11
2022-09-06T05:20:35.901Z,41.31
2022-09-06T05:21:42.498Z,41.32
2022-09-06T05:22:46.911Z,41.19
2022-09-06T05:23:53.426Z,41.17
2022-09-06T05:24:59.852Z,41.08
2022-09-06T05:26:04.228Z,41.09
2022-09-06T05:27:08.647Z,41
2022-09-06T05:28:13.049Z,41.26
2022-09-06T05:29:17.489Z,41.12
2022-09-06T05:30:21.803Z,41.19
2022-09-06T05:31:26.378Z,41.27
2022-09-06T05:32:30.785Z,41.29
2022-09-06T05:33:35.142Z,41.32
2022-09-06T05:34:39.508Z,41.2
2022-09-06T05:35:43.851Z,41.24
2022-09-06T05:36:48.248Z,41.24
2022-09-06T05:37:52.648Z,41.22
2022-09-06T05:38:57.008Z,41.23
2022-09-06T05:40:01.607Z,41.14
2022-09-06T05:41:06.060Z,41.09
2022-09-06T05:42:10.393Z,41.16
2022-09-06T05:43:14.745Z,41.44
2022-09-06T05:44:19.098Z,41.69
2022-09-06T05:45:23.798Z,41.94
2022-09-06T05:46:28.184Z,42.02
2022-09-06T05:47:32.548Z,41.73
2022-09-06T05:48:39.569Z,41.64
2022-09-06T05:49:43.926Z,41.72
2022-09-06T05:50:48.260Z,41.59
2022-09-06T05:51:52.648Z,41.44
2022-09-06T05:52:57.043Z,41.59
2022-09-06T05:54:01.427Z,41.56
2022-09-06T05:55:05.779Z,41.54
2022-09-06T05:56:10.200Z,41.68
2022-09-06T05:57:14.579Z,41.57
2022-09-06T05:58:19.920Z,41.6
2022-09-06T05:59:24.330Z,41.35
2022-09-06T06:00:28.838Z,41.22
2022-09-06T06:01:33.477Z,41.23
2022-09-06T06:02:38.137Z,41.44
2022-09-06T06:03:42.576Z,41.3
2022-09-06T06:04:46.933Z,41.14
2022-09-06T06:05:51.295Z,41.26
2022-09-06T06:06:55.726Z,41.18
2022-09-06T06:08:00.097Z,41.12
2022-09-06T06:09:04.476Z,41.21
2022-09-06T06:10:08.838Z,41.34
2022-09-06T06:11:13.200Z,41.16
2022-09-06T06:12:17.569Z,41.22
2022-09-06T06:13:21.968Z,41.2
2022-09-06T06:14:26.351Z,41.22
2022-09-06T06:15:30.718Z,41.23
2022-09-06T06:16:35.342Z,41.24
2022-09-06T06:17:39.813Z,41.26
2022-09-06T06:18:45.936Z,41.29
2022-09-06T06:19:53.141Z,41.28
2022-09-06T06:20:57.490Z,41.22
2022-09-06T06:22:01.863Z,41.24
2022-09-06T06:23:06.268Z,41.18
2022-09-06T06:24:10.674Z,41.5
2022-09-06T06:25:15.087Z,41.54
2022-09-06T06:26:19.469Z,41.39
2022-09-06T06:27:23.838Z,41.53
2022-09-06T06:28:28.655Z,41.59
2022-09-06T06:29:33.176Z,41.56
2022-09-06T06:30:37.555Z,41.58
2022-09-06T06:31:42.429Z,41.56
2022-09-06T06:32:46.820Z,41.63
2022-09-06T06:33:51.197Z,41.71
2022-09-06T06:34:55.546Z,41.76
2022-09-06T06:35:59.903Z,41.84
2022-09-06T06:37:04.367Z,41.8
2022-09-06T06:38:08.731Z,41.8
2022-09-06T06:39:13.141Z,41.86
2022-09-06T06:40:17.552Z,41.96
2022-09-06T06:41:21.896Z,41.96
2022-09-06T06:42:26.278Z,41.99
2022-09-06T06:43:30.686Z,42.1
2022-09-06T06:44:35.084Z,42.05
2022-09-06T06:45:39.747Z,42.07
2022-09-06T06:46:44.180Z,42.09
2022-09-06T06:47:48.531Z,42.14
2022-09-06T06:48:56.974Z,42.17
2022-09-06T06:50:01.337Z,42.22
2022-09-06T06:51:05.752Z,42.24
2022-09-06T06:52:10.148Z,42.29
2022-09-06T06:53:14.564Z,42.27
2022-09-06T06:54:18.927Z,42.26
2022-09-06T06:55:23.287Z,42.25
2022-09-06T06:56:27.694Z,42.21
2022-09-06T06:57:32.075Z,42.23
2022-09-06T06:58:36.418Z,42.25
2022-09-06T06:59:40.812Z,42.26
2022-09-06T07:00:45.437Z,42.22
2022-09-06T07:01:50.390Z,42.29
2022-09-06T07:02:54.783Z,42.27
2022-09-06T07:03:59.179Z,42.26
2022-09-06T07:07:44.063Z,42.3
2022-09-06T07:08:48.456Z,42.32
2022-09-06T07:10:38.331Z,42.35
2022-09-06T07:11:42.704Z,42.34
2022-09-06T07:12:47.325Z,42.37
2022-09-06T07:13:51.672Z,42.4
2022-09-06T07:14:56.075Z,42.41
2022-09-06T07:16:00.542Z,42.42
2022-09-06T07:17:10.701Z,42.5
2022-09-06T07:18:15.066Z,42.49
2022-09-06T07:20:19.467Z,42.51
2022-09-06T07:21:40.075Z,42.56
2022-09-06T07:22:44.439Z,42.54
2022-09-06T07:24:18.780Z,42.53
2022-09-06T07:25:23.802Z,42.58
2022-09-06T07:26:28.146Z,42.55
2022-09-06T07:27:49.733Z,42.6
2022-09-06T07:28:54.735Z,42.6
2022-09-06T07:29:59.055Z,42.57
2022-09-06T07:31:04.167Z,42.61
2022-09-06T07:32:12.085Z,42.59
2022-09-06T07:33:16.816Z,42.64
2022-09-06T07:34:21.229Z,42.59
2022-09-06T07:35:25.604Z,42.65
2022-09-06T07:36:29.935Z,42.66
2022-09-06T07:37:34.302Z,42.66
2022-09-06T07:38:38.644Z,42.67
2022-09-06T07:39:43.132Z,42.69
2022-09-06T07:40:47.507Z,42.69
2022-09-06T07:41:51.880Z,42.72
2022-09-06T07:42:56.297Z,42.73
2022-09-06T07:44:00.705Z,42.74
2022-09-06T07:45:05.196Z,42.76
2022-09-06T07:46:09.570Z,42.73
2022-09-06T07:47:59.812Z,42.77
2022-09-06T07:49:04.206Z,42.8
2022-09-06T07:50:59.077Z,42.77
2022-09-06T07:53:08.228Z,42.8
2022-09-06T07:54:32.597Z,42.84
2022-09-06T07:55:36.956Z,42.84
2022-09-06T07:56:41.304Z,42.81
2022-09-06T07:57:45.683Z,42.84
2022-09-06T07:58:50.071Z,42.83
2022-09-06T07:59:54.443Z,42.86
2022-09-06T08:00:58.924Z,42.88
2022-09-06T08:02:03.684Z,42.88
2022-09-06T08:03:08.078Z,42.87
2022-09-06T08:04:13.454Z,42.94
2022-09-06T08:06:17.829Z,42.93
2022-09-06T08:10:00.968Z,42.98
2022-09-06T08:11:05.378Z,43
2022-09-06T08:12:09.740Z,43.08
2022-09-06T08:13:14.107Z,43.06
2022-09-06T08:14:18.509Z,43.05
2022-09-06T08:15:22.868Z,43
2022-09-06T08:16:27.451Z,43.05
2022-09-06T08:17:31.859Z,43.06
2022-09-06T08:18:36.237Z,43.05
2022-09-06T08:19:40.595Z,43.06
2022-09-06T08:20:44.938Z,43.05
2022-09-06T08:21:49.299Z,43.07
2022-09-06T08:22:53.660Z,43.08
2022-09-06T08:23:58.003Z,43.08
2022-09-06T08:25:02.324Z,43.08
2022-09-06T08:26:06.773Z,43.06
2022-09-06T08:27:11.182Z,43.08
2022-09-06T08:28:15.559Z,43.05
2022-09-06T08:29:19.955Z,43.01
2022-09-06T08:30:24.349Z,43.05
2022-09-06T08:31:28.942Z,43.01
2022-09-06T08:32:33.365Z,43.06
2022-09-06T08:33:37.712Z,43.12
2022-09-06T08:34:42.084Z,43.14
2022-09-06T08:35:46.478Z,43.2
2022-09-06T08:36:50.900Z,43.17
2022-09-06T08:37:55.263Z,43.14
2022-09-06T08:38:59.629Z,43.17
2022-09-06T08:40:04.317Z,43.2
2022-09-06T08:41:08.754Z,43.21
2022-09-06T08:42:13.091Z,43.18
2022-09-06T08:43:17.466Z,43.19
2022-09-06T08:44:54.984Z,43.22
2022-09-06T08:45:59.989Z,43.33
2022-09-06T08:47:04.806Z,43.31
2022-09-06T08:48:09.223Z,43.27
2022-09-06T08:49:13.565Z,43.21
2022-09-06T08:50:18.004Z,43.33
2022-09-06T08:51:22.395Z,43.51
2022-09-06T08:52:27.064Z,43.58
2022-09-06T08:53:31.463Z,43.74
2022-09-06T08:54:35.780Z,43.9
2022-09-06T08:55:40.131Z,43.83
2022-09-06T08:56:44.504Z,43.92
2022-09-06T08:57:48.900Z,43.83
2022-09-06T08:58:53.230Z,43.74
2022-09-06T08:59:57.633Z,43.63
2022-09-06T09:01:02.249Z,43.94
2022-09-06T09:02:06.906Z,43.77
2022-09-06T09:03:18.159Z,43.75
2022-09-06T09:04:22.518Z,43.78
2022-09-06T09:05:26.889Z,43.7
2022-09-06T09:06:31.227Z,43.78
2022-09-06T09:07:35.542Z,43.82
2022-09-06T09:08:39.910Z,43.77
2022-09-06T09:09:44.279Z,43.68
2022-09-06T09:10:48.636Z,43.68
2022-09-06T09:11:52.982Z,43.71
2022-09-06T09:12:57.293Z,43.67
2022-09-06T09:14:01.732Z,43.69
2022-09-06T09:15:06.088Z,43.76
2022-09-06T09:16:10.605Z,43.77
2022-09-06T09:17:15.043Z,43.73
2022-09-06T09:18:19.398Z,43.67
2022-09-06T09:19:23.796Z,43.71
2022-09-06T09:20:28.182Z,43.69
2022-09-06T09:21:33.213Z,43.67
2022-09-06T09:22:37.607Z,43.74
2022-09-06T09:23:42.023Z,43.68
2022-09-06T09:24:46.412Z,43.66
2022-09-06T09:25:50.754Z,43.58
2022-09-06T09:26:55.142Z,43.59
2022-09-06T09:27:59.529Z,43.6
2022-09-06T09:29:03.897Z,43.68
2022-09-06T09:30:53.763Z,43.9
2022-09-06T09:31:58.596Z,43.76
2022-09-06T09:33:02.967Z,43.72
2022-09-06T09:34:07.347Z,43.68
2022-09-06T09:35:11.712Z,43.72
2022-09-06T09:36:16.099Z,43.7
2022-09-06T09:37:59.095Z,43.95
2022-09-06T09:39:07.414Z,43.86
2022-09-06T09:40:11.970Z,44.04
2022-09-06T09:41:16.334Z,44.07
2022-09-06T09:42:21.773Z,43.99
2022-09-06T09:43:26.110Z,44.06
2022-09-06T09:44:30.467Z,44.08
2022-09-06T09:45:34.811Z,43.98
2022-09-06T09:46:39.473Z,44.01
2022-09-06T09:47:43.922Z,43.91
2022-09-06T09:48:48.313Z,43.88
2022-09-06T09:49:52.727Z,43.88
2022-09-06T09:50:57.158Z,43.88
2022-09-06T09:52:01.624Z,43.92
2022-09-06T09:53:06.068Z,43.96
2022-09-06T09:54:10.505Z,43.94
2022-09-06T09:55:14.890Z,43.84
2022-09-06T09:56:19.279Z,44
2022-09-06T09:57:23.629Z,43.97
2022-09-06T09:58:28.188Z,43.95
2022-09-06T09:59:32.573Z,43.98
2022-09-06T10:00:37.154Z,43.92
2022-09-06T10:01:41.563Z,43.97
2022-09-06T10:02:45.974Z,43.87
2022-09-06T10:04:50.313Z,43.86
2022-09-06T10:06:04.470Z,43.91
2022-09-06T10:07:09.673Z,43.88
2022-09-06T10:08:15.630Z,43.86
2022-09-06T10:09:21.355Z,43.88
2022-09-06T10:10:25.743Z,43.91
2022-09-06T10:11:30.072Z,43.88
2022-09-06T10:12:34.438Z,43.93
2022-09-06T10:13:38.780Z,43.91
2022-09-06T10:14:43.202Z,43.9
2022-09-06T10:15:47.787Z,43.87
2022-09-06T10:16:52.158Z,43.85
2022-09-06T10:17:56.526Z,43.81
2022-09-06T10:19:00.862Z,43.92
2022-09-06T10:20:05.219Z,43.89
2022-09-06T10:21:09.598Z,43.9
2022-09-06T10:22:13.957Z,43.89
2022-09-06T10:23:18.944Z,43.85
2022-09-06T10:25:27.590Z,43.91
2022-09-06T10:26:31.934Z,43.89
2022-09-06T10:27:55.649Z,43.85
2022-09-06T10:29:06.018Z,43.83
2022-09-06T10:30:10.436Z,43.89
2022-09-06T10:31:15.064Z,43.88
2022-09-06T10:32:19.450Z,43.88
2022-09-06T10:33:23.805Z,43.88
2022-09-06T10:34:30.834Z,43.85
2022-09-06T10:35:35.237Z,43.92
2022-09-06T10:36:39.596Z,43.94
2022-09-06T10:37:43.958Z,43.8
2022-09-06T10:38:48.412Z,43.82
2022-09-06T10:39:53.027Z,43.83
2022-09-06T10:40:57.492Z,43.91
2022-09-06T10:42:01.879Z,43.94
2022-09-06T10:43:06.219Z,43.82
2022-09-06T10:44:10.621Z,43.75
2022-09-06T10:45:14.978Z,43.75
2022-09-06T10:46:19.634Z,43.81
2022-09-06T10:47:24.029Z,43.95
2022-09-06T10:48:29.276Z,43.73
2022-09-06T10:49:34.838Z,43.82
2022-09-06T10:50:39.229Z,43.96
2022-09-06T10:51:43.698Z,43.84
2022-09-06T10:52:48.049Z,43.83
2022-09-06T10:53:52.518Z,43.83
2022-09-06T10:54:56.887Z,43.85
2022-09-06T10:56:03.561Z,44.02
2022-09-06T10:57:08.213Z,44.07
2022-09-06T10:58:21.761Z,44.03
2022-09-06T10:59:41.945Z,44.03
2022-09-06T11:00:46.375Z,43.99
2022-09-06T11:01:51.366Z,43.95
2022-09-06T11:03:57.146Z,44.14
2022-09-06T11:06:42.113Z,44.24
2022-09-06T11:08:46.262Z,44.48
2022-09-06T11:09:51.189Z,44.35
2022-09-06T11:10:55.576Z,44.37
2022-09-06T11:12:00.085Z,44.31
2022-09-06T11:13:04.456Z,44.39
2022-09-06T11:14:08.799Z,44.38
2022-09-06T11:15:13.190Z,44.3
2022-09-06T11:16:17.888Z,44.58
2022-09-06T11:17:22.330Z,44.57
2022-09-06T11:18:26.870Z,44.33
2022-09-06T11:19:31.187Z,44.47
2022-09-06T11:20:35.534Z,44.43
2022-09-06T11:21:39.852Z,44.59
2022-09-06T11:22:44.232Z,44.5
2022-09-06T11:23:48.685Z,44.41
2022-09-06T11:24:53.063Z,44.57
2022-09-06T11:25:57.442Z,44.73
2022-09-06T11:27:04.064Z,44.58
2022-09-06T11:28:08.460Z,44.68
2022-09-06T11:29:12.774Z,44.55
2022-09-06T11:30:17.168Z,44.68
2022-09-06T11:32:21.619Z,44.71
2022-09-06T11:33:26.508Z,44.64
2022-09-06T11:34:30.926Z,44.59
2022-09-06T11:35:35.256Z,44.55
2022-09-06T11:36:39.655Z,44.61
2022-09-06T11:37:44.082Z,44.65
2022-09-06T11:38:48.472Z,44.67
2022-09-06T11:40:26.135Z,44.75
2022-09-06T11:41:31.655Z,44.65
2022-09-06T11:42:36.047Z,44.69
2022-09-06T11:43:40.840Z,44.71
2022-09-06T11:44:45.231Z,44.73
2022-09-06T11:45:49.565Z,44.78
2022-09-06T11:46:54.049Z,44.78
2022-09-06T11:48:01.488Z,44.76
2022-09-06T11:49:05.859Z,44.86
2022-09-06T11:50:10.266Z,44.85
2022-09-06T11:51:14.905Z,44.84
2022-09-06T11:52:19.286Z,44.74
2022-09-06T11:53:23.935Z,44.55
2022-09-06T11:54:28.429Z,44.69
2022-09-06T11:55:32.830Z,44.69
2022-09-06T11:56:37.200Z,44.78
2022-09-06T11:57:41.583Z,44.71
2022-09-06T11:58:46.071Z,44.82
2022-09-06T11:59:50.463Z,44.8
2022-09-06T12:00:54.824Z,44.83
2022-09-06T12:01:59.188Z,44.81
2022-09-06T12:04:03.703Z,44.84
2022-09-06T12:05:08.717Z,44.88
2022-09-06T12:06:13.069Z,44.81
2022-09-06T12:07:17.448Z,44.88
2022-09-06T12:08:21.835Z,44.83
2022-09-06T12:09:26.183Z,44.78
2022-09-06T12:10:30.551Z,44.88
2022-09-06T12:11:34.883Z,44.88
2022-09-06T12:12:39.307Z,44.8
2022-09-06T12:13:43.696Z,44.88
2022-09-06T12:14:48.210Z,44.99
2022-09-06T12:15:52.715Z,44.93
2022-09-06T12:16:57.139Z,44.92
2022-09-06T12:18:01.549Z,44.93
2022-09-06T12:19:05.962Z,45.22
2022-09-06T12:20:10.316Z,45.24
2022-09-06T12:21:14.677Z,45.04
2022-09-06T12:22:19.065Z,45.04
2022-09-06T12:23:23.401Z,45.04
2022-09-06T12:24:27.778Z,45
2022-09-06T12:25:32.136Z,44.96
2022-09-06T12:26:36.618Z,45.03
2022-09-06T12:27:41.004Z,45.09
2022-09-06T12:28:45.343Z,45
2022-09-06T12:29:49.722Z,45.1
2022-09-06T12:30:54.222Z,45.02
2022-09-06T12:31:58.600Z,45.05
2022-09-06T12:33:02.986Z,45.19
2022-09-06T12:34:07.351Z,45.05
2022-09-06T12:35:57.185Z,45.14
2022-09-06T12:37:01.898Z,45.11
2022-09-06T12:38:06.244Z,45.08
2022-09-06T12:39:10.602Z,45.14
2022-09-06T12:40:15.340Z,45.11
2022-09-06T12:41:19.835Z,45.24
2022-09-06T12:42:24.235Z,45.22
2022-09-06T12:43:28.574Z,45.23
2022-09-06T12:44:32.924Z,45.24
2022-09-06T12:45:37.280Z,45.3
2022-09-06T12:46:42.035Z,45.25
2022-09-06T12:47:46.427Z,45.23
2022-09-06T12:48:50.774Z,45.19
2022-09-06T12:49:55.122Z,45.12
2022-09-06T12:50:59.467Z,45.15
2022-09-06T12:52:03.837Z,45.15
2022-09-06T12:53:08.201Z,45.1
2022-09-06T12:54:12.538Z,45.17
2022-09-06T12:55:16.858Z,45.17
2022-09-06T12:56:21.270Z,45.15
2022-09-06T12:57:25.684Z,45.12
2022-09-06T12:58:30.411Z,45.14
2022-09-06T12:59:34.798Z,45.11
2022-09-06T13:00:39.147Z,45.17
2022-09-06T13:01:43.951Z,45.18
2022-09-06T13:02:48.985Z,45.13
2022-09-06T13:03:53.444Z,45.15
2022-09-06T13:04:57.814Z,45.18
2022-09-06T13:06:02.192Z,45.2
2022-09-06T13:07:06.544Z,45.19
2022-09-06T13:08:10.907Z,45.13
2022-09-06T13:09:15.260Z,45.07
2022-09-06T13:10:19.623Z,45.07
2022-09-06T13:11:24.082Z,45.08
2022-09-06T13:12:28.479Z,45.18
2022-09-06T13:13:32.864Z,45.21
2022-09-06T13:14:37.279Z,45.23
2022-09-06T13:15:41.792Z,45.32
2022-09-06T13:16:46.178Z,45.32
2022-09-06T13:17:50.503Z,45.34
2022-09-06T13:18:54.853Z,45.3
2022-09-06T13:19:59.243Z,45.45
2022-09-06T13:21:03.616Z,45.49
2022-09-06T13:22:08.009Z,45.49
2022-09-06T13:23:12.318Z,45.43
2022-09-06T13:24:16.660Z,45.4
2022-09-06T13:25:23.007Z,45.43
2022-09-06T13:26:27.348Z,45.43
2022-09-06T13:27:32.030Z,45.5
2022-09-06T13:28:36.465Z,45.49
2022-09-06T13:29:40.834Z,45.47
2022-09-06T13:30:51.127Z,45.52
2022-09-06T13:31:55.526Z,45.53
2022-09-06T13:32:59.914Z,45.54
2022-09-06T13:34:04.245Z,45.47
2022-09-06T13:35:08.642Z,45.49
2022-09-06T13:36:13.009Z,45.61
2022-09-06T13:37:17.350Z,45.51
2022-09-06T13:38:21.759Z,45.6
2022-09-06T13:39:26.197Z,45.59
2022-09-06T13:40:30.578Z,45.61
2022-09-06T13:41:34.957Z,45.58
2022-09-06T13:42:39.297Z,45.61
2022-09-06T13:43:43.710Z,45.44
2022-09-06T13:44:48.049Z,45.46
2022-09-06T13:45:52.555Z,45.51
2022-09-06T13:46:56.928Z,45.5
2022-09-06T13:48:40.270Z,45.56
2022-09-06T13:49:44.752Z,45.51
2022-09-06T13:50:49.176Z,45.56
2022-09-06T13:51:53.497Z,45.52
2022-09-06T13:52:57.863Z,45.49
2022-09-06T13:54:02.203Z,45.5
2022-09-06T13:55:06.613Z,45.52
2022-09-06T13:56:11.137Z,45.52
2022-09-06T13:57:15.488Z,45.46
2022-09-06T13:58:20.096Z,45.43
2022-09-06T13:59:24.474Z,45.35
2022-09-06T14:00:28.880Z,45.35
2022-09-06T14:01:33.517Z,45.37
2022-09-06T14:02:38.060Z,45.38
2022-09-06T14:03:42.448Z,45.34
2022-09-06T14:04:46.824Z,45.42
2022-09-06T14:05:51.198Z,45.34
2022-09-06T14:06:55.559Z,45.35
2022-09-06T14:07:59.910Z,45.28
2022-09-06T14:09:10.680Z,45.2
2022-09-06T14:10:15.072Z,45.47
2022-09-06T14:11:19.456Z,45.53
2022-09-06T14:12:23.809Z,45.6
2022-09-06T14:13:28.450Z,45.97
2022-09-06T14:14:32.877Z,45.72
2022-09-06T14:15:37.435Z,45.99
2022-09-06T14:16:41.837Z,45.73
2022-09-06T14:17:46.166Z,46.49
2022-09-06T14:18:50.528Z,45.78
2022-09-06T14:19:54.870Z,45.86